createdAt,value
2023-01-04T00:00:10.829Z,101917.03
2023-01-04T00:02:38.631Z,101917.03
2023-01-04T00:05:07.270Z,101915.28
2023-01-04T00:07:34.944Z,101905.69
2023-01-04T00:10:02.617Z,101896.94
2023-01-04T00:12:30.302Z,101897.81
2023-01-04T00:14:57.998Z,101893.41
2023-01-04T00:17:27.024Z,101888.16
2023-01-04T00:19:54.703Z,101876.81
2023-01-04T00:22:22.754Z,101866.34
2023-01-04T00:24:50.410Z,101867.19
2023-01-04T00:27:18.125Z,101862.81
2023-01-04T00:29:45.786Z,101855.84
2023-01-04T00:32:13.462Z,101857.59
2023-01-04T00:34:42.771Z,101843.59
2023-01-04T00:37:10.485Z,101835.72
2023-01-04T00:39:38.145Z,101820.88
2023-01-04T00:42:06.157Z,101820.88
2023-01-04T00:44:34.480Z,101802.50
2023-01-04T00:47:03.088Z,101798.16
2023-01-04T00:49:31.332Z,101792.03
2023-01-04T00:52:00.389Z,101787.66
2023-01-04T00:54:28.383Z,101785.94
2023-01-04T00:56:56.089Z,101783.31
2023-01-04T00:59:24.012Z,101765.78
2023-01-04T01:01:51.964Z,101757.91
2023-01-04T01:04:20.682Z,101754.44
2023-01-04T01:06:48.497Z,101757.91
2023-01-04T01:09:17.556Z,101757.06
2023-01-04T01:11:45.270Z,101750.06
2023-01-04T01:14:16.058Z,101744.81
2023-01-04T01:16:55.052Z,101736.94
2023-01-04T01:19:23.899Z,101723.81
2023-01-04T01:21:51.583Z,101712.47
2023-01-04T01:24:20.707Z,101702.00
2023-01-04T01:26:48.501Z,101698.50
2023-01-04T01:29:16.191Z,101686.25
2023-01-04T01:31:44.040Z,101672.25
2023-01-04T01:34:11.776Z,101673.16
2023-01-04T01:36:39.426Z,101677.50
2023-01-04T01:39:07.250Z,101671.38
2023-01-04T01:41:36.316Z,101662.66
2023-01-04T01:44:05.610Z,101655.66
2023-01-04T01:46:36.224Z,101661.78
2023-01-04T01:49:05.326Z,101646.03
2023-01-04T01:51:33.117Z,101647.75
2023-01-04T01:54:03.983Z,101640.78
2023-01-04T01:56:31.647Z,101630.31
2023-01-04T01:59:01.097Z,101622.44
2023-01-04T02:01:28.849Z,101624.16
2023-01-04T02:03:56.680Z,101616.31
2023-01-04T02:06:26.859Z,101612.84
2023-01-04T02:08:54.533Z,101608.44
2023-01-04T02:11:22.191Z,101591.84
2023-01-04T02:14:07.095Z,101582.22
2023-01-04T02:16:41.485Z,101584.84
2023-01-04T02:19:22.682Z,101569.16
2023-01-04T02:21:57.106Z,101563.88
2023-01-04T02:24:34.876Z,101558.63
2023-01-04T02:27:41.925Z,101543.75
2023-01-04T02:30:39.481Z,101532.38
2023-01-04T02:33:26.141Z,101535.03
2023-01-04T02:35:58.036Z,101522.78
2023-01-04T02:38:28.377Z,101514.91
2023-01-04T02:41:00.174Z,101511.41
2023-01-04T02:43:47.461Z,101500.06
2023-01-04T02:46:16.159Z,101498.28
2023-01-04T02:49:02.810Z,101486.94
2023-01-04T02:51:31.723Z,101485.19
2023-01-04T02:54:00.433Z,101479.09
2023-01-04T02:56:36.346Z,101468.59
2023-01-04T02:59:16.398Z,101458.97
2023-01-04T03:02:03.435Z,101459.00
2023-01-04T03:04:59.301Z,101440.66
2023-01-04T03:07:28.972Z,101434.50
2023-01-04T03:10:00.834Z,101431.91
2023-01-04T03:12:37.778Z,101416.16
2023-01-04T03:15:09.765Z,101419.69
2023-01-04T03:17:39.827Z,101408.28
2023-01-04T03:20:09.664Z,101393.41
2023-01-04T03:22:55.907Z,101382.97
2023-01-04T03:25:51.377Z,101383.81
2023-01-04T03:28:36.624Z,101369.81
2023-01-04T03:31:25.464Z,101368.97
2023-01-04T03:34:10.533Z,101355.88
2023-01-04T03:36:45.040Z,101352.34
2023-01-04T03:39:34.061Z,101337.50
2023-01-04T03:42:20.720Z,101320.03
2023-01-04T03:45:10.289Z,101322.66
2023-01-04T03:47:59.513Z,101312.19
2023-01-04T03:50:28.296Z,101306.94
2023-01-04T03:52:57.344Z,101299.94
2023-01-04T03:55:25.004Z,101285.09
2023-01-04T03:57:53.052Z,101285.09
2023-01-04T04:00:20.856Z,101277.22
2023-01-04T04:02:49.868Z,101273.72
2023-01-04T04:05:37.699Z,101255.41
2023-01-04T04:08:24.209Z,101251.00
2023-01-04T04:10:51.870Z,101241.41
2023-01-04T04:13:19.538Z,101238.78
2023-01-04T04:15:47.266Z,101240.53
2023-01-04T04:18:14.922Z,101217.81
2023-01-04T04:20:42.583Z,101213.47
2023-01-04T04:23:11.834Z,101208.22
2023-01-04T04:25:39.567Z,101196.88
2023-01-04T04:28:07.258Z,101189.88
2023-01-04T04:30:34.951Z,101192.50
2023-01-04T04:33:02.636Z,101178.50
2023-01-04T04:35:30.304Z,101174.13
2023-01-04T04:37:57.969Z,101163.66
2023-01-04T04:40:44.251Z,101168.91
2023-01-04T04:43:11.917Z,101158.41
2023-01-04T04:45:39.624Z,101154.91
2023-01-04T04:48:07.338Z,101154.91
2023-01-04T04:50:35.023Z,101162.75
2023-01-04T04:53:02.700Z,101149.66
2023-01-04T04:55:31.735Z,101130.50
2023-01-04T04:57:59.414Z,101127.88
2023-01-04T05:00:27.506Z,101129.63
2023-01-04T05:02:55.280Z,101114.78
2023-01-04T05:05:23.012Z,101096.44
2023-01-04T05:07:50.673Z,101098.19
2023-01-04T05:10:18.512Z,101088.56
2023-01-04T05:13:01.493Z,101082.44
2023-01-04T05:15:29.258Z,101085.06
2023-01-04T05:17:56.956Z,101074.59
2023-01-04T05:20:24.629Z,101076.38
2023-01-04T05:22:52.334Z,101059.75
2023-01-04T05:25:20.040Z,101058.84
2023-01-04T05:27:49.078Z,101062.34
2023-01-04T05:30:34.702Z,101050.94
2023-01-04T05:33:02.427Z,101057.00
2023-01-04T05:35:30.168Z,101049.13
2023-01-04T05:37:57.840Z,101046.50
2023-01-04T05:40:25.513Z,101024.63
2023-01-04T05:42:54.528Z,101024.59
2023-01-04T05:45:22.712Z,101015.84
2023-01-04T05:47:50.730Z,101004.47
2023-01-04T05:50:18.799Z,101007.09
2023-01-04T05:52:46.473Z,100993.06
2023-01-04T05:55:14.189Z,101001.81
2023-01-04T05:57:41.849Z,100994.78
2023-01-04T06:00:12.405Z,100989.56
2023-01-04T06:02:40.280Z,100979.91
2023-01-04T06:05:09.813Z,100979.00
2023-01-04T06:07:37.743Z,100979.88
2023-01-04T06:10:06.344Z,100964.19
2023-01-04T06:12:34.040Z,100967.63
2023-01-04T06:15:01.909Z,100964.09
2023-01-04T06:17:30.925Z,100958.00
2023-01-04T06:19:58.599Z,100965.00
2023-01-04T06:22:27.040Z,100949.25
2023-01-04T06:24:54.697Z,100954.50
2023-01-04T06:27:22.354Z,100951.03
2023-01-04T06:29:50.026Z,100940.56
2023-01-04T06:32:17.819Z,100939.66
2023-01-04T06:34:46.893Z,100936.13
2023-01-04T06:37:14.608Z,100927.38
2023-01-04T06:39:42.288Z,100925.63
2023-01-04T06:42:31.375Z,100925.63
2023-01-04T06:44:59.062Z,100915.13
2023-01-04T06:47:27.127Z,100915.13
2023-01-04T06:49:56.138Z,100912.53
2023-01-04T06:52:23.840Z,100913.41
2023-01-04T06:54:51.499Z,100908.16
2023-01-04T06:57:19.175Z,100907.28
2023-01-04T06:59:46.848Z,100894.16
2023-01-04T07:02:15.147Z,100887.19
2023-01-04T07:04:43.756Z,100890.66
2023-01-04T07:07:12.900Z,100884.56
2023-01-04T07:09:40.586Z,100879.34
2023-01-04T07:12:08.279Z,100880.25
2023-01-04T07:14:35.978Z,100868.84
2023-01-04T07:17:03.677Z,100863.59
2023-01-04T07:19:31.390Z,100873.19
2023-01-04T07:21:59.097Z,100870.56
2023-01-04T07:24:30.582Z,100856.56
2023-01-04T07:26:58.388Z,100867.94
2023-01-04T07:29:26.490Z,100867.06
2023-01-04T07:31:54.248Z,100860.97
2023-01-04T07:34:22.907Z,100863.59
2023-01-04T07:36:50.712Z,100854.84
2023-01-04T07:39:18.692Z,100856.56
2023-01-04T07:41:48.003Z,100858.34
2023-01-04T07:44:15.689Z,100854.84
2023-01-04T07:46:43.509Z,100853.13
2023-01-04T07:49:17.084Z,100856.56
2023-01-04T07:51:45.868Z,100853.09
2023-01-04T07:54:13.646Z,100846.97
2023-01-04T07:56:41.322Z,100851.34
2023-01-04T07:59:11.038Z,100850.50
2023-01-04T08:01:39.018Z,100850.50
2023-01-04T08:04:07.074Z,100843.53
2023-01-04T08:06:34.879Z,100841.75
2023-01-04T08:09:02.700Z,100841.72
2023-01-04T08:11:30.367Z,100842.63
2023-01-04T08:13:58.028Z,100846.97
2023-01-04T08:16:28.726Z,100846.06
2023-01-04T08:18:56.744Z,100838.22
2023-01-04T08:21:24.554Z,100849.59
2023-01-04T08:23:52.476Z,100846.97
2023-01-04T08:26:21.527Z,100840.81
2023-01-04T08:28:49.751Z,100832.13
2023-01-04T08:31:18.695Z,100834.75
2023-01-04T08:33:48.112Z,100831.22
2023-01-04T08:36:25.963Z,100830.34
2023-01-04T08:38:59.870Z,100823.38
2023-01-04T08:44:16.146Z,100820.72
2023-01-04T08:46:43.838Z,100818.97
2023-01-04T08:49:13.094Z,100803.22
2023-01-04T08:51:40.890Z,100806.72
2023-01-04T08:54:08.579Z,100811.09
2023-01-04T08:56:36.258Z,100804.06
2023-01-04T08:59:04.167Z,100805.78
2023-01-04T09:01:32.717Z,100804.94
2023-01-04T09:04:00.693Z,100797.06
2023-01-04T09:06:29.816Z,100800.53
2023-01-04T09:08:57.973Z,100796.16
2023-01-04T09:11:25.897Z,100799.66
2023-01-04T09:13:58.344Z,100803.13
2023-01-04T09:16:32.214Z,100813.63
2023-01-04T09:18:59.984Z,100805.75
2023-01-04T09:21:29.104Z,100804.91
2023-01-04T09:23:57.671Z,100800.53
2023-01-04T09:26:25.364Z,100806.66
2023-01-04T09:28:54.359Z,100796.97
2023-01-04T09:31:22.903Z,100788.28
2023-01-04T09:36:39.727Z,100784.75
2023-01-04T09:39:07.457Z,100777.75
2023-01-04T09:41:37.695Z,100779.50
2023-01-04T09:44:12.384Z,100782.09
2023-01-04T09:46:41.454Z,100777.75
2023-01-04T09:49:16.205Z,100778.69
2023-01-04T09:51:49.581Z,100784.78
2023-01-04T09:54:20.543Z,100782.16
2023-01-04T09:56:50.387Z,100778.63
2023-01-04T09:59:18.534Z,100774.25
2023-01-04T10:01:47.910Z,100778.63
2023-01-04T10:04:17.395Z,100775.97
2023-01-04T10:06:46.426Z,100778.63
2023-01-04T10:09:15.733Z,100769.91
2023-01-04T10:11:50.056Z,100771.63
2023-01-04T10:14:25.469Z,100769.88
2023-01-04T10:17:16.199Z,100777.72
2023-01-04T10:22:48.151Z,100768.94
2023-01-04T10:25:25.564Z,100765.41
2023-01-04T10:28:01.175Z,100763.66
2023-01-04T10:30:31.745Z,100758.41
2023-01-04T10:33:02.987Z,100760.16
2023-01-04T10:35:30.666Z,100754.94
2023-01-04T10:38:00.645Z,100755.78
2023-01-04T10:40:29.085Z,100735.66
2023-01-04T10:42:59.991Z,100745.25
2023-01-04T10:45:33.732Z,100748.75
2023-01-04T10:48:04.382Z,100746.13
2023-01-04T10:50:35.479Z,100745.22
2023-01-04T10:53:05.684Z,100739.09
2023-01-04T10:55:37.735Z,100742.56
2023-01-04T10:58:07.735Z,100731.16
2023-01-04T11:00:38.523Z,100729.38
2023-01-04T11:03:09.436Z,100733.75
2023-01-04T11:05:39.497Z,100730.19
2023-01-04T11:08:10.757Z,100725.81
2023-01-04T11:10:40.715Z,100719.66
2023-01-04T11:13:08.435Z,100720.50
2023-01-04T11:15:36.263Z,100714.34
2023-01-04T11:18:04.656Z,100711.72
2023-01-04T11:20:36.138Z,100714.34
2023-01-04T11:23:07.153Z,100704.75
2023-01-04T11:25:38.964Z,100714.28
2023-01-04T11:28:09.449Z,100705.53
2023-01-04T11:30:47.518Z,100702.03
2023-01-04T11:33:17.015Z,100689.78
2023-01-04T11:35:45.455Z,100695.91
2023-01-04T11:38:15.904Z,100700.25
2023-01-04T11:40:55.052Z,100696.75
2023-01-04T11:43:23.561Z,100694.13
2023-01-04T11:45:55.375Z,100696.75
2023-01-04T11:48:33.030Z,100694.09
2023-01-04T11:51:00.745Z,100680.16
2023-01-04T11:53:31.142Z,100688.88
2023-01-04T11:56:17.467Z,100686.25
2023-01-04T11:58:46.010Z,100693.22
2023-01-04T12:01:21.707Z,100695.78
2023-01-04T12:03:49.427Z,100685.34
2023-01-04T12:06:18.780Z,100681.00
2023-01-04T12:08:46.486Z,100680.94
2023-01-04T12:11:20.042Z,100674.81
2023-01-04T12:13:47.751Z,100681.75
2023-01-04T12:16:20.077Z,100686.19
2023-01-04T12:18:47.816Z,100686.19
2023-01-04T12:21:17.775Z,100675.69
2023-01-04T12:23:45.631Z,100682.69
2023-01-04T12:26:13.360Z,100684.47
2023-01-04T12:28:44.086Z,100686.19
2023-01-04T12:31:30.681Z,100678.31
2023-01-04T12:33:58.921Z,100679.16
2023-01-04T12:37:04.763Z,100682.63
2023-01-04T12:39:44.910Z,100676.53
2023-01-04T12:42:21.926Z,100676.53
2023-01-04T12:45:24.173Z,100673.03
2023-01-04T12:48:10.373Z,100667.78
2023-01-04T12:51:35.310Z,100669.50
2023-01-04T12:54:03.843Z,100657.19
2023-01-04T12:57:04.597Z,100658.91
2023-01-04T12:59:33.737Z,100658.91
2023-01-04T13:02:22.810Z,100657.19
2023-01-04T13:04:59.130Z,100659.78
2023-01-04T13:07:42.399Z,100643.19
2023-01-04T13:10:20.522Z,100642.25
2023-01-04T13:12:56.461Z,100640.56
2023-01-04T13:15:25.995Z,100640.47
2023-01-04T13:17:55.010Z,100637.81
2023-01-04T13:20:23.638Z,100633.44
2023-01-04T13:22:53.304Z,100623.00
2023-01-04T13:25:21.337Z,100616.84
2023-01-04T13:27:59.387Z,100617.66
2023-01-04T13:30:34.834Z,100615.03
2023-01-04T13:33:28.000Z,100618.47
2023-01-04T13:36:01.660Z,100615.03
2023-01-04T13:38:37.277Z,100612.38
2023-01-04T13:41:05.070Z,100608.88
2023-01-04T13:43:44.404Z,100614.09
2023-01-04T13:46:15.474Z,100607.97
2023-01-04T13:48:47.713Z,100601.84
2023-01-04T13:51:17.023Z,100595.72
2023-01-04T13:53:53.115Z,100605.34
2023-01-04T13:56:21.754Z,100590.50
2023-01-04T13:58:49.423Z,100593.97
2023-01-04T14:01:19.131Z,100593.97
2023-01-04T14:03:48.863Z,100584.34
2023-01-04T14:06:22.256Z,100577.41
2023-01-04T14:08:56.132Z,100574.78
2023-01-04T14:11:43.127Z,100578.31
2023-01-04T14:14:20.787Z,100576.59
2023-01-04T14:16:48.578Z,100567.88
2023-01-04T14:19:49.118Z,100563.56
2023-01-04T14:22:53.317Z,100560.94
2023-01-04T14:25:43.503Z,100560.97
2023-01-04T14:28:32.916Z,100551.34
2023-01-04T14:31:34.997Z,100560.06
2023-01-04T14:34:09.468Z,100556.59
2023-01-04T14:36:38.520Z,100548.75
2023-01-04T14:39:20.483Z,100557.47
2023-01-04T14:41:57.391Z,100558.38
2023-01-04T14:44:28.225Z,100556.63
2023-01-04T14:46:57.337Z,100561.00
2023-01-04T14:49:26.836Z,100554.94
2023-01-04T14:51:56.815Z,100560.16
2023-01-04T14:54:25.713Z,100546.19
2023-01-04T14:56:53.619Z,100557.59
2023-01-04T14:59:23.611Z,100556.72
2023-01-04T15:01:51.712Z,100559.38
2023-01-04T15:04:19.567Z,100563.78
2023-01-04T15:06:51.299Z,100558.56
2023-01-04T15:09:20.311Z,100568.19
2023-01-04T15:11:47.979Z,100569.97
2023-01-04T15:14:15.659Z,100569.09
2023-01-04T15:16:43.516Z,100560.38
2023-01-04T15:19:11.372Z,100563.00
2023-01-04T15:21:41.471Z,100560.38
2023-01-04T15:24:09.764Z,100559.53
2023-01-04T15:26:39.064Z,100562.16
2023-01-04T15:29:08.321Z,100566.53
2023-01-04T15:31:39.696Z,100563.94
2023-01-04T15:34:08.096Z,100572.72
2023-01-04T15:36:38.636Z,100568.41
2023-01-04T15:39:06.754Z,100572.84
2023-01-04T15:41:52.241Z,100571.13
2023-01-04T15:44:21.348Z,100564.16
2023-01-04T15:46:51.026Z,100558.00
2023-01-04T15:49:18.787Z,100557.16
2023-01-04T15:51:46.491Z,100546.69
2023-01-04T15:54:14.232Z,100558.00
2023-01-04T15:56:41.925Z,100543.22
2023-01-04T15:59:09.597Z,100544.16
2023-01-04T16:01:38.751Z,100551.13
2023-01-04T16:04:06.913Z,100557.28
2023-01-04T16:06:34.624Z,100561.63
2023-01-04T16:09:02.317Z,100573.88
2023-01-04T16:11:30.036Z,100555.53
2023-01-04T16:13:57.707Z,100548.53
2023-01-04T16:16:27.340Z,100552.94
2023-01-04T16:18:57.055Z,100557.31
2023-01-04T16:21:25.850Z,100561.72
2023-01-04T16:23:58.389Z,100554.72
2023-01-04T16:26:29.675Z,100561.72
2023-01-04T16:28:57.353Z,100550.38
2023-01-04T16:31:25.121Z,100549.50
2023-01-04T16:33:53.158Z,100561.72
2023-01-04T16:36:22.245Z,100564.34
2023-01-04T16:38:49.930Z,100565.19
2023-01-04T16:41:18.451Z,100554.69
2023-01-04T16:43:47.455Z,100552.94
2023-01-04T16:46:20.486Z,100565.19
2023-01-04T16:48:48.983Z,100559.97
2023-01-04T16:51:16.843Z,100559.97
2023-01-04T16:53:45.854Z,100558.28
2023-01-04T16:56:14.722Z,100552.13
2023-01-04T16:58:44.158Z,100564.38
2023-01-04T17:01:13.149Z,100567.91
2023-01-04T17:03:41.165Z,100568.78
2023-01-04T17:06:10.190Z,100561.81
2023-01-04T17:08:37.867Z,100556.59
2023-01-04T17:11:50.935Z,100560.09
2023-01-04T17:13:55.827Z,100559.19
2023-01-04T17:16:23.631Z,100562.72
2023-01-04T17:18:51.860Z,100558.34
2023-01-04T17:21:36.081Z,100559.22
2023-01-04T17:24:04.003Z,100554.00
2023-01-04T17:26:33.241Z,100555.72
2023-01-04T17:29:01.824Z,100555.72
2023-01-04T17:31:30.513Z,100554.84
2023-01-04T17:33:58.286Z,100553.09
2023-01-04T17:36:25.985Z,100557.50
2023-01-04T17:38:53.717Z,100569.69
2023-01-04T17:41:22.122Z,100574.06
2023-01-04T17:43:52.100Z,100567.09
2023-01-04T17:46:23.416Z,100561.84
2023-01-04T17:49:10.291Z,100563.59
2023-01-04T17:51:39.918Z,100560.09
2023-01-04T17:54:08.246Z,100558.34
2023-01-04T17:56:37.620Z,100560.97
2023-01-04T17:59:07.658Z,100561.88
2023-01-04T18:01:35.713Z,100565.41
2023-01-04T18:04:03.549Z,100559.28
2023-01-04T18:06:32.985Z,100554.03
2023-01-04T18:09:00.810Z,100550.53
2023-01-04T18:11:28.561Z,100551.50
2023-01-04T18:13:56.232Z,100557.56
2023-01-04T18:16:28.734Z,100566.34
2023-01-04T18:18:56.817Z,100562.00
2023-01-04T18:21:28.388Z,100556.78
2023-01-04T18:27:19.180Z,100557.66
2023-01-04T18:29:32.737Z,100562.97
2023-01-04T18:32:02.106Z,100553.34
2023-01-04T18:34:29.925Z,100551.63
2023-01-04T18:36:57.639Z,100538.53
2023-01-04T18:39:25.455Z,100533.28
2023-01-04T18:41:54.265Z,100545.59
2023-01-04T18:44:32.700Z,100543.81
2023-01-04T18:47:02.908Z,100545.63
2023-01-04T18:49:30.605Z,100543.00
2023-01-04T18:51:58.268Z,100529.91
2023-01-04T18:54:25.948Z,100532.56
2023-01-04T18:56:59.004Z,100529.94
2023-01-04T18:59:28.242Z,100533.50
2023-01-04T19:02:00.530Z,100542.22
2023-01-04T19:04:30.123Z,100538.72
2023-01-04T19:06:57.797Z,100534.34
2023-01-04T19:09:25.474Z,100540.44
2023-01-04T19:11:53.131Z,100543.03
2023-01-04T19:14:20.874Z,100534.34
2023-01-04T19:16:48.662Z,100536.97
2023-01-04T19:19:16.449Z,100539.59
2023-01-04T19:21:46.259Z,100532.63
2023-01-04T19:24:13.972Z,100529.09
2023-01-04T19:26:41.641Z,100523.84
2023-01-04T19:29:09.313Z,100526.47
2023-01-04T19:31:37.108Z,100520.38
2023-01-04T19:34:05.651Z,100522.06
2023-01-04T19:36:33.359Z,100516.81
2023-01-04T19:39:04.391Z,100520.38
2023-01-04T19:41:34.521Z,100522.06
2023-01-04T19:44:02.635Z,100507.25
2023-01-04T19:46:30.448Z,100534.31
2023-01-04T19:48:58.327Z,100521.19
2023-01-04T19:51:27.770Z,100525.59
2023-01-04T19:53:55.591Z,100528.25
2023-01-04T19:56:24.653Z,100524.81
2023-01-04T19:58:52.528Z,100534.41
2023-01-04T20:01:21.437Z,100530.00
2023-01-04T20:03:49.371Z,100521.25
2023-01-04T20:06:17.237Z,100529.09
2023-01-04T20:08:45.168Z,100523.81
2023-01-04T20:11:12.913Z,100533.50
2023-01-04T20:13:41.963Z,100521.31
2023-01-04T20:16:10.030Z,100531.78
2023-01-04T20:18:37.981Z,100520.41
2023-01-04T20:21:09.432Z,100530.84
2023-01-04T20:23:37.687Z,100520.41
2023-01-04T20:26:11.211Z,100529.22
2023-01-04T20:28:40.552Z,100517.78
2023-01-04T20:31:10.180Z,100521.13
2023-01-04T20:33:38.031Z,100536.78
2023-01-04T20:36:06.563Z,100524.59
2023-01-04T20:38:39.943Z,100529.00
2023-01-04T20:41:08.299Z,100535.97
2023-01-04T20:43:36.185Z,100532.50
2023-01-04T20:46:04.433Z,100541.31
2023-01-04T20:48:33.544Z,100527.31
2023-01-04T20:51:06.835Z,100524.69
2023-01-04T20:53:36.103Z,100533.38
2023-01-04T20:56:08.169Z,100537.78
2023-01-04T20:58:36.090Z,100527.28
2023-01-04T21:01:05.250Z,100535.09
2023-01-04T21:03:34.336Z,100538.69
2023-01-04T21:06:02.838Z,100542.09
2023-01-04T21:08:30.609Z,100542.09
2023-01-04T21:10:58.361Z,100529.91
2023-01-04T21:13:27.605Z,100525.56
2023-01-04T21:15:55.458Z,100543.91
2023-01-04T21:18:23.387Z,100533.38
2023-01-04T21:20:52.571Z,100550.88
2023-01-04T21:23:21.189Z,100532.56
2023-01-04T21:25:49.464Z,100538.69
2023-01-04T21:28:17.333Z,100554.34
2023-01-04T21:30:45.312Z,100551.72
2023-01-04T21:33:13.450Z,100545.63
2023-01-04T21:35:41.287Z,100551.72
2023-01-04T21:38:10.919Z,100552.59
2023-01-04T21:40:39.532Z,100542.09
2023-01-04T21:43:07.202Z,100549.09
2023-01-04T21:45:39.076Z,100551.69
2023-01-04T21:48:07.228Z,100539.41
2023-01-04T21:50:34.777Z,100549.88
2023-01-04T21:53:02.455Z,100549.84
2023-01-04T21:55:34.881Z,100542.88
2023-01-04T21:58:03.096Z,100549.94
2023-01-04T22:00:30.791Z,100545.59
2023-01-04T22:02:58.497Z,100558.69
2023-01-04T22:05:26.189Z,100551.69
2023-01-04T22:07:53.863Z,100556.88
2023-01-04T22:10:22.177Z,100568.25
2023-01-04T22:12:51.420Z,100564.78
2023-01-04T22:15:19.087Z,100562.19
2023-01-04T22:17:46.768Z,100569.22
2023-01-04T22:20:14.433Z,100565.81
2023-01-04T22:22:42.112Z,100564.09
2023-01-04T22:25:10.399Z,100558.00
2023-01-04T22:27:38.186Z,100565.03
2023-01-04T22:30:08.525Z,100570.28
2023-01-04T22:32:36.251Z,100571.16
2023-01-04T22:35:04.019Z,100586.03
2023-01-04T22:37:31.686Z,100588.69
2023-01-04T22:39:59.368Z,100597.44
2023-01-04T22:42:27.039Z,100606.19
2023-01-04T22:44:54.719Z,100600.06
2023-01-04T22:47:23.755Z,100591.31
2023-01-04T22:49:51.437Z,100594.81
2023-01-04T22:52:19.112Z,100592.22
2023-01-04T22:54:48.515Z,100614.09
2023-01-04T22:57:16.158Z,100614.97
2023-01-04T22:59:43.821Z,100618.47
2023-01-04T23:02:11.484Z,100607.16
2023-01-04T23:04:40.659Z,100621.06
2023-01-04T23:07:08.328Z,100609.75
2023-01-04T23:09:36.002Z,100614.97
2023-01-04T23:12:03.736Z,100614.19
2023-01-04T23:14:31.411Z,100617.69
2023-01-04T23:16:59.117Z,100614.22
2023-01-04T23:19:26.951Z,100626.44
2023-01-04T23:21:55.970Z,100628.19
2023-01-04T23:24:23.651Z,100619.44
2023-01-04T23:26:51.339Z,100637.88
2023-01-04T23:29:19.007Z,100636.09
2023-01-04T23:31:46.775Z,100645.72
2023-01-04T23:34:14.493Z,100666.69
2023-01-04T23:36:42.544Z,100648.38
2023-01-04T23:39:13.956Z,100657.09
2023-01-04T23:41:47.821Z,100658.00
2023-01-04T23:44:17.547Z,100657.09
2023-01-04T23:46:45.289Z,100662.28
2023-01-04T23:49:13.180Z,100658.78
2023-01-04T23:51:42.414Z,100671.00
2023-01-04T23:54:11.486Z,100670.13
2023-01-04T23:56:39.270Z,100674.50
2023-01-04T23:59:07.339Z,100673.66
